Time;durP1;ratioP1;P1;durP2;ratioP2;P2;SDS_P1;SDS_P2;PMS_P1;PMS_P2;Temp;Humidity;BMP_temperature;BMP_pressure;BME280_temperature;BME280_humidity;BME280_pressure;Samples;Min_cycle;Max_cycle;Signal;HPM_P1;HPM_P2
2022/08/10 00:00:22;;;;;;;4.80;3.10;;;;;;;;;;5008153;28;20093;-79
2022/08/10 00:02:53;;;;;;;4.15;2.83;;;;;;;17.72;80.39;68738.59;4989182;28;20041;-79
2022/08/10 00:05:20;;;;;;;6.88;3.40;;;;;;;17.65;80.78;68738.66;5008651;28;20048;-80
2022/08/10 00:07:46;;;;;;;5.78;3.40;;;;;;;17.65;80.43;68735.41;5007410;28;20033;-79
2022/08/10 00:10:13;;;;;;;5.78;3.28;;;;;;;17.59;81.33;68729.13;5009376;28;20404;-80
2022/08/10 00:12:39;;;;;;;5.00;3.05;;;;;;;17.53;81.44;68725.53;4988696;28;20037;-79
2022/08/10 00:15:07;;;;;;;4.82;3.30;;;;;;;17.50;81.74;68714.06;5005603;28;20108;-79
2022/08/10 00:17:32;;;;;;;5.50;3.55;;;;;;;17.44;82.50;68714.72;4989895;28;20045;-79
2022/08/10 00:19:58;;;;;;;6.35;3.40;;;;;;;17.45;81.81;68713.16;5005174;28;20034;-79
2022/08/10 00:22:23;;;;;;;6.43;3.63;;;;;;;17.46;82.12;68714.84;4989350;28;20444;-79
2022/08/10 00:24:48;;;;;;;5.18;3.35;;;;;;;;;;4989223;28;20121;-79
2022/08/10 00:27:14;;;;;;;5.47;3.67;;;;;;;;;;5003347;28;20038;-79
2022/08/10 00:29:39;;;;;;;5.38;3.97;;;;;;;;;;5008923;28;20101;-78
2022/08/10 00:32:04;;;;;;;5.53;3.43;;;;;;;;;;5009918;28;20054;-79
2022/08/10 00:34:30;;;;;;;4.88;3.42;;;;;;;;;;5005711;28;20298;-79
2022/08/10 00:36:56;;;;;;;7.07;3.10;;;;;;;17.25;83.98;68690.91;5004824;28;20444;-78
2022/08/10 00:39:21;;;;;;;5.35;3.70;;;;;;;17.16;84.38;68681.22;5006517;28;20565;-79
2022/08/10 00:41:47;;;;;;;4.10;3.70;;;;;;;17.07;85.40;68671.50;5007124;28;20121;-79
2022/08/10 00:44:13;;;;;;;5.75;3.40;;;;;;;17.05;85.10;68669.22;5004871;28;20049;-79
2022/08/10 00:46:38;;;;;;;5.85;3.95;;;;;;;17.05;85.31;68669.22;5005445;28;20196;-78
2022/08/10 00:49:04;;;;;;;5.00;3.58;;;;;;;17.11;84.68;68670.13;5005921;28;20496;-79
2022/08/10 00:51:29;;;;;;;5.13;3.53;;;;;;;17.05;85.29;68669.22;5005943;28;20101;-79
2022/08/10 00:53:54;;;;;;;4.72;3.90;;;;;;;16.97;85.85;68659.53;5004626;28;20045;-79
2022/08/10 00:56:20;;;;;;;7.72;3.80;;;;;;;;;;5008621;28;20540;-79
2022/08/10 00:58:45;;;;;;;6.13;4.03;;;;;;;;;;5007561;28;20049;-79
2022/08/10 01:01:11;;;;;;;5.88;3.85;;;;;;;16.92;86.00;68657.66;4989773;28;20038;-79
2022/08/10 01:03:36;;;;;;;6.53;4.28;;;;;;;16.85;87.01;68649.66;5007341;28;20038;-79
2022/08/10 01:06:09;;;;;;;5.88;4.00;;;;;;;;;;5007912;28;20045;-78
2022/08/10 01:08:51;;;;;;;5.07;3.75;;;;;;;16.81;86.73;68642.44;5006416;28;20048;-80
2022/08/10 01:11:42;;;;;;;6.95;4.20;;;;;;;16.76;87.46;68641.50;5003274;28;20056;-79
2022/08/10 01:14:13;;;;;;;6.20;4.60;;;;;;;;;;4989655;28;20476;-79
2022/08/10 01:16:59;;;;;;;6.60;4.65;;;;;;;16.67;88.39;68629.13;5009733;28;20049;-79
2022/08/10 01:19:53;;;;;;;5.57;4.28;;;;;;;16.64;88.41;68625.72;5006604;28;20029;-80
2022/08/10 01:23:03;;;;;;;6.65;4.25;;;;;;;16.60;89.06;68621.13;5009222;28;20041;-79
2022/08/10 01:25:54;;;;;;;7.20;4.43;;;;;;;16.44;90.21;68600.78;4978970;28;20612;-79
2022/08/10 01:28:41;;;;;;;5.93;4.47;;;;;;;16.50;89.91;68607.63;5007076;28;20042;-79
2022/08/10 01:31:07;;;;;;;6.80;4.95;;;;;;;;;;4991130;28;20080;-79
2022/08/10 01:33:57;;;;;;;6.57;4.40;;;;;;;16.46;89.77;68606.31;5007757;28;20038;-79
2022/08/10 01:36:40;;;;;;;6.35;4.60;;;;;;;16.41;90.36;68600.63;5000221;28;20042;-78
2022/08/10 01:39:08;;;;;;;7.93;5.20;;;;;;;16.44;89.85;68601.34;5006195;28;20069;-79
2022/08/10 01:41:40;;;;;;;9.77;4.97;;;;;;;16.44;90.06;68595.41;5002683;28;20585;-78
2022/08/10 01:44:31;;;;;;;6.88;4.97;;;;;;;16.43;89.65;68599.66;5041584;23;20385;-88
2022/08/10 01:49:55;;;;;;;7.22;4.72;;;;;;;;;;5022451;28;20243;-88
2022/08/10 01:52:22;;;;;;;5.80;4.63;;;;;;;;;;5018569;28;20065;-87
2022/08/10 01:54:49;;;;;;;6.13;4.85;;;;;;;16.28;91.28;68582.53;5028528;28;20053;-88
2022/08/10 01:57:16;;;;;;;7.00;4.95;;;;;;;16.25;91.13;68579.69;4994738;28;20078;-87
2022/08/10 01:59:44;;;;;;;7.47;4.90;;;;;;;16.24;91.42;68573.19;5008887;28;20038;-86
2022/08/10 02:02:10;;;;;;;7.75;5.32;;;;;;;;;;4991854;28;20517;-87
2022/08/10 02:04:38;;;;;;;6.38;4.68;;;;;;;;;;5010156;28;20045;-87
2022/08/10 02:07:09;;;;;;;8.13;5.93;;;;;;;16.10;92.43;68562.59;5006192;28;20040;-88
2022/08/10 02:09:37;;;;;;;6.68;5.40;;;;;;;;;;5002510;28;20065;-89
2022/08/10 02:12:07;;;;;;;7.40;5.20;;;;;;;;;;5037203;28;20485;-88
2022/08/10 02:14:43;;;;;;;7.63;5.72;;;;;;;16.07;92.31;68559.75;5013554;28;20088;-86
2022/08/10 02:17:13;;;;;;;6.57;4.95;;;;;;;16.00;92.59;68551.78;5027857;28;20480;-86
2022/08/10 02:19:42;;;;;;;6.97;5.90;;;;;;;15.93;93.75;68544.34;5014869;28;20044;-89
2022/08/10 02:22:10;;;;;;;7.45;5.82;;;;;;;15.93;93.41;68544.34;5021213;28;20056;-89
2022/08/10 02:24:39;;;;;;;7.47;6.05;;;;;;;15.87;93.35;68537.50;5035080;28;20041;-86
2022/08/10 02:27:04;;;;;;;;;;;;;;;;;;5016271;28;20099;-87
2022/08/10 02:29:31;;;;;;;7.80;5.40;;;;;;;15.81;93.75;68530.69;5013992;28;19962;-87
2022/08/10 02:31:57;;;;;;;7.60;5.55;;;;;;;;;;5013836;28;20041;-88
2022/08/10 02:34:24;;;;;;;7.97;6.10;;;;;;;15.79;94.21;68528.41;5028953;28;20496;-88
2022/08/10 02:36:54;;;;;;;8.20;5.88;;;;;;;15.75;94.31;68523.84;5015244;28;20050;-87
2022/08/10 02:39:22;;;;;;;9.40;6.18;;;;;;;15.76;94.00;68524.97;5012333;28;20536;-87
2022/08/10 02:42:32;;;;;;;8.68;6.18;;;;;;;15.71;94.74;68519.88;5028269;28;20037;-87
2022/08/10 02:45:00;;;;;;;7.47;6.53;;;;;;;15.61;96.33;68511.13;4951176;29;20248;-87
2022/08/10 02:47:31;;;;;;;8.60;6.38;;;;;;;15.64;95.56;68511.28;5000758;28;20044;-86
2022/08/10 02:50:08;;;;;;;9.98;6.32;;;;;;;15.66;95.61;68506.09;5012188;28;20447;-86
2022/08/10 02:52:39;;;;;;;10.10;7.10;;;;;;;;;;5023741;28;20048;-87
2022/08/10 02:55:13;;;;;;;11.68;7.38;;;;;;;15.63;95.90;68512.84;5032516;28;20044;-87
2022/08/10 02:57:43;;;;;;;8.77;7.43;;;;;;;15.55;97.10;68496.81;5024472;28;20051;-88
2022/08/10 03:00:09;;;;;;;10.80;7.70;;;;;;;15.54;96.97;68501.03;5013659;28;20048;-88
2022/08/10 03:02:48;;;;;;;9.13;6.97;;;;;;;15.57;96.90;68504.44;5020055;28;20045;-87
2022/08/10 03:05:15;;;;;;;8.70;7.22;;;;;;;15.57;96.05;68504.44;5015344;28;20037;-87
2022/08/10 03:07:47;;;;;;;9.82;6.78;;;;;;;15.46;96.48;68491.34;5028893;28;20140;-89
2022/08/10 03:10:17;;;;;;;9.05;6.65;;;;;;;;;;5024262;28;20033;-87
2022/08/10 03:12:47;;;;;;;10.90;7.10;;;;;;;15.40;97.33;68485.09;5031744;28;20046;-87
2022/08/10 03:15:17;;;;;;;9.75;7.97;;;;;;;15.38;97.77;68482.81;5033194;28;20069;-88
2022/08/10 03:17:48;;;;;;;9.90;7.68;;;;;;;15.36;97.77;68483.19;5030545;28;20073;-87
2022/08/10 03:20:14;;;;;;;11.18;7.68;;;;;;;;;;5031087;28;20041;-88
2022/08/10 03:22:41;;;;;;;12.57;7.65;;;;;;;15.31;98.10;68474.84;5001498;28;20046;-88
2022/08/10 03:25:10;;;;;;;10.90;8.48;;;;;;;15.29;98.27;68472.56;5032202;28;20045;-87
2022/08/10 03:27:37;;;;;;;8.43;6.97;;;;;;;15.25;98.45;68468.56;5013450;28;20041;-87
2022/08/10 03:30:03;;;;;;;10.27;7.53;;;;;;;15.22;98.85;68464.56;5034161;28;20496;-87
2022/08/10 03:32:29;;;;;;;13.07;8.65;;;;;;;15.25;98.65;68468.56;4997716;28;20079;-88
2022/08/10 03:34:57;;;;;;;11.10;8.55;;;;;;;15.24;98.58;68467.41;5016505;28;20041;-88
2022/08/10 03:37:23;;;;;;;10.70;8.18;;;;;;;;;;5022173;28;20049;-88
2022/08/10 03:39:50;;;;;;;10.45;8.20;;;;;;;;;;5005236;28;20519;-88
2022/08/10 03:42:15;;;;;;;11.93;8.00;;;;;;;;;;5035564;28;20096;-88
2022/08/10 03:44:42;;;;;;;12.15;8.30;;;;;;;15.06;100.00;68442.13;5034366;28;20609;-88
2022/08/10 03:47:11;;;;;;;12.18;9.43;;;;;;;15.04;100.00;68445.22;5018371;28;20045;-88
2022/08/10 03:49:38;;;;;;;10.88;8.57;;;;;;;15.02;100.00;68442.94;5013748;28;20038;-88
2022/08/10 03:52:07;;;;;;;11.40;8.45;;;;;;;15.01;100.00;68441.22;5025201;28;20045;-89
2022/08/10 03:54:33;;;;;;;12.65;9.70;;;;;;;14.94;100.00;68433.25;5032448;28;20038;-88
2022/08/10 03:56:59;;;;;;;11.98;10.18;;;;;;;;;;5038355;28;20032;-90
2022/08/10 03:59:25;;;;;;;13.75;9.50;;;;;;;14.94;100.00;68433.84;5043118;28;20050;-88
2022/08/10 04:01:51;;;;;;;10.80;8.45;;;;;;;14.95;100.00;68434.97;5030705;28;20729;-88
2022/08/10 04:04:19;;;;;;;13.02;9.95;;;;;;;14.85;100.00;68429.50;5016989;28;20107;-87
2022/08/10 04:06:45;;;;;;;12.02;9.40;;;;;;;14.88;100.00;68422.22;5013384;28;20048;-88
2022/08/10 04:09:10;;;;;;;12.30;9.27;;;;;;;;;;5015940;28;20132;-88
2022/08/10 04:11:35;;;;;;;12.80;9.20;;;;;;;14.83;100.00;68427.22;5022204;28;20049;-88
2022/08/10 04:14:05;;;;;;;13.73;10.02;;;;;;;14.76;100.00;68418.69;5030469;28;20720;-89
2022/08/10 04:16:30;;;;;;;12.75;9.52;;;;;;;;;;5016482;28;20052;-88
2022/08/10 04:18:55;;;;;;;15.25;10.48;;;;;;;14.68;100.00;68410.16;5018873;28;20183;-88
2022/08/10 04:21:29;;;;;;;13.77;10.50;;;;;;;14.71;100.00;68407.66;5030420;28;20050;-88
2022/08/10 04:23:57;;;;;;;16.30;10.95;;;;;;;14.70;100.00;68406.50;5030387;28;20053;-88
2022/08/10 04:26:23;;;;;;;12.98;10.40;;;;;;;14.71;100.00;68408.22;5034394;28;20037;-88
2022/08/10 04:28:49;;;;;;;14.38;10.88;;;;;;;14.66;100.00;68405.19;4994197;28;20038;-89
2022/08/10 04:31:16;;;;;;;15.30;11.38;;;;;;;14.68;100.00;68404.78;5018365;28;20041;-88
2022/08/10 04:33:46;;;;;;;14.05;11.00;;;;;;;14.68;100.00;68399.44;5021550;28;20048;-88
2022/08/10 04:36:14;;;;;;;12.95;10.30;;;;;;;14.72;100.00;68408.78;5030440;28;20041;-88
2022/08/10 04:38:41;;;;;;;17.75;10.77;;;;;;;14.69;100.00;68400.56;5001289;28;20120;-89
2022/08/10 04:41:10;;;;;;;13.10;10.70;;;;;;;14.68;100.00;68404.22;5023088;28;20045;-89
2022/08/10 04:43:35;;;;;;;;;;;;;;;14.70;100.00;68406.50;5024797;28;20061;-88
2022/08/10 04:46:04;;;;;;;15.15;11.20;;;;;;;14.65;100.00;68401.94;5025808;28;19944;-88
2022/08/10 04:48:32;;;;;;;16.08;11.48;;;;;;;;;;4999768;28;20072;-88
2022/08/10 04:50:57;;;;;;;16.08;10.20;;;;;;;14.71;100.00;68407.66;5001354;28;20419;-88
2022/08/10 04:53:23;;;;;;;14.95;11.73;;;;;;;14.71;100.00;68408.22;5028417;28;20112;-87
2022/08/10 04:55:48;;;;;;;15.27;12.13;;;;;;;14.81;100.00;68419.03;5012800;28;20076;-89
2022/08/10 04:58:14;;;;;;;17.70;11.98;;;;;;;14.81;100.00;68421.69;4999726;28;20037;-88
2022/08/10 05:00:39;;;;;;;13.52;10.68;;;;;;;;;;4999796;28;20045;-88
2022/08/10 05:03:10;;;;;;;13.65;11.23;;;;;;;14.87;100.00;68420.50;4944532;28;20050;-87
2022/08/10 05:05:35;;;;;;;15.88;10.68;;;;;;;;;;4943193;28;20040;-88
2022/08/10 05:08:06;;;;;;;14.40;10.13;;;;;;;14.80;100.00;68418.44;4945259;28;20035;-87
2022/08/10 05:10:31;;;;;;;15.57;12.05;;;;;;;;;;4927628;28;20051;-89
2022/08/10 05:12:59;;;;;;;15.98;10.93;;;;;;;14.88;100.00;68432.94;4934513;28;20106;-88
2022/08/10 05:15:26;;;;;;;14.00;11.07;;;;;;;;;;4938599;28;20047;-89
2022/08/10 05:17:52;;;;;;;13.73;10.68;;;;;;;14.94;100.00;68433.25;4936378;28;20050;-89
2022/08/10 05:20:19;;;;;;;15.35;10.80;;;;;;;14.93;100.00;68432.69;4908160;29;20510;-88
2022/08/10 05:22:45;;;;;;;15.60;10.95;;;;;;;14.93;100.00;68435.34;4932767;28;20066;-88
2022/08/10 05:25:11;;;;;;;16.40;11.15;;;;;;;;;;4925708;28;20080;-87
2022/08/10 05:27:46;;;;;;;14.50;10.82;;;;;;;15.02;100.00;68442.94;4946101;28;20047;-88
2022/08/10 05:30:13;;;;;;;17.38;10.40;;;;;;;;;;4932572;28;20133;-85
2022/08/10 05:32:39;;;;;;;14.07;11.70;;;;;;;15.10;100.00;68452.06;4925830;28;20042;-89
2022/08/10 05:35:06;;;;;;;14.75;10.98;;;;;;;15.14;100.00;68458.72;4977147;28;20063;-91
2022/08/10 05:37:31;;;;;;;13.88;10.93;;;;;;;;;;4985020;28;20051;-90
2022/08/10 05:39:57;;;;;;;17.33;11.68;;;;;;;15.18;100.00;68460.03;4964436;28;20077;-88
2022/08/10 05:42:24;;;;;;;15.30;10.93;;;;;;;15.23;100.00;68465.72;4926213;28;20526;-87
2022/08/10 05:44:52;;;;;;;15.20;11.38;;;;;;;;;;4964175;28;20565;-86
2022/08/10 05:47:18;;;;;;;13.23;10.87;;;;;;;15.37;100.00;68483.78;4932224;28;20258;-87
2022/08/10 05:49:46;;;;;;;14.05;10.98;;;;;;;15.43;100.00;68488.50;4954909;28;20520;-87
2022/08/10 05:52:12;;;;;;;14.02;10.45;;;;;;;15.52;100.00;68501.44;4929916;28;20073;-85
2022/08/10 05:54:37;;;;;;;13.10;11.50;;;;;;;;;;4984494;28;20069;-87
2022/08/10 05:57:04;;;;;;;15.63;10.93;;;;;;;15.77;100.00;68526.69;5004630;28;20076;-87
2022/08/10 05:59:38;;;;;;;15.32;10.68;;;;;;;15.81;100.00;68530.69;5012334;28;20124;-87
2022/08/10 06:02:08;;;;;;;11.73;10.10;;;;;;;15.90;100.00;68540.94;5007024;28;20042;-88
2022/08/10 06:04:44;;;;;;;13.55;10.93;;;;;;;15.99;100.00;68553.88;5006601;28;20041;-86
2022/08/10 06:07:14;;;;;;;14.48;9.80;;;;;;;16.16;99.16;68569.44;5025979;28;20044;-87
2022/08/10 06:09:40;;;;;;;12.10;9.82;;;;;;;;;;5013957;28;20045;-89
2022/08/10 06:12:16;;;;;;;12.98;10.07;;;;;;;16.35;98.21;68591.09;5004858;28;20075;-87
2022/08/10 06:15:01;;;;;;;12.38;9.63;;;;;;;16.45;97.88;68601.91;4966001;28;20034;-89
2022/08/10 06:17:30;;;;;;;12.45;10.25;;;;;;;16.53;97.64;68610.47;4999012;28;20100;-87
2022/08/10 06:19:59;;;;;;;11.45;8.82;;;;;;;16.63;97.17;68625.16;4983561;28;20050;-87
2022/08/10 06:22:34;;;;;;;13.32;10.13;;;;;;;16.76;96.28;68636.13;4966904;28;20044;-87
2022/08/10 06:25:03;;;;;;;10.95;9.15;;;;;;;16.85;94.59;68646.97;4989341;28;20083;-86
2022/08/10 06:27:42;;;;;;;11.57;9.15;;;;;;;16.92;94.64;68649.59;4981143;28;20125;-87
2022/08/10 06:30:08;;;;;;;12.27;8.65;;;;;;;;;;4972740;28;20544;-86
2022/08/10 06:32:33;;;;;;;10.50;8.75;;;;;;;;;;5000440;28;20093;-87
2022/08/10 06:35:05;;;;;;;10.52;7.97;;;;;;;17.33;92.25;68700.03;4997573;28;20100;-86
2022/08/10 06:37:35;;;;;;;12.52;7.72;;;;;;;17.46;92.38;68709.47;4988260;28;20083;-86
2022/08/10 06:40:19;;;;;;;10.65;7.78;;;;;;;17.56;90.85;68725.72;5013835;28;20083;-87
2022/08/10 06:42:56;;;;;;;9.50;7.40;;;;;;;;;;4981321;28;20037;-86
2022/08/10 06:45:28;;;;;;;13.00;8.00;;;;;;;17.78;89.83;68750.25;4987022;28;20034;-90
2022/08/10 06:48:07;;;;;;;9.75;7.25;;;;;;;17.92;88.81;68766.22;4995807;28;20533;-85
2022/08/10 06:50:38;;;;;;;10.82;7.55;;;;;;;18.01;88.11;68778.63;4971132;28;20074;-86
2022/08/10 06:53:12;;;;;;;8.25;7.00;;;;;;;18.17;87.61;68794.22;4979060;28;20042;-86
2022/08/10 06:55:41;;;;;;;9.15;7.03;;;;;;;18.33;86.56;68814.03;4952159;28;20042;-85
2022/08/10 06:58:35;;;;;;;8.07;6.72;;;;;;;18.43;85.99;68823.31;4970333;28;20546;-84
2022/08/10 07:01:03;;;;;;;9.43;7.00;;;;;;;;;;4946103;28;20531;-84
2022/08/10 07:03:32;;;;;;;8.60;6.28;;;;;;;;;;4977983;28;20094;-88
2022/08/10 07:06:00;;;;;;;8.90;6.00;;;;;;;18.72;83.40;68855.88;4959297;28;20110;-85
2022/08/10 07:08:35;;;;;;;7.57;6.40;;;;;;;18.90;82.78;68870.50;4964083;28;20052;-85
2022/08/10 07:11:04;;;;;;;8.95;6.32;;;;;;;19.04;83.16;68885.34;4985282;28;20047;-85
2022/08/10 07:13:41;;;;;;;8.13;6.45;;;;;;;;;;4992122;28;20504;-84
2022/08/10 07:16:36;;;;;;;8.98;6.03;;;;;;;;;;4995027;28;20052;-84
2022/08/10 07:19:10;;;;;;;7.43;5.88;;;;;;;;;;4956272;28;20046;-85
2022/08/10 07:21:45;;;;;;;6.88;5.28;;;;;;;19.58;80.22;68946.47;4949406;28;20668;-83
2022/08/10 07:24:17;;;;;;;7.07;5.22;;;;;;;;;;4925455;28;20082;-86
2022/08/10 07:26:44;;;;;;;10.80;5.30;;;;;;;;;;4912051;29;20043;-86
2022/08/10 07:29:30;;;;;;;6.90;4.80;;;;;;;19.96;77.47;68988.75;4947628;29;20422;-86
2022/08/10 07:32:01;;;;;;;7.00;4.85;;;;;;;20.07;76.90;69000.78;4924314;29;20043;-86
2022/08/10 07:34:34;;;;;;;6.05;4.30;;;;;;;20.14;77.11;69008.19;4920971;29;20050;-86
2022/08/10 07:37:05;;;;;;;7.97;5.00;;;;;;;20.33;77.16;69029.94;4892167;29;20050;-86
2022/08/10 07:39:38;;;;;;;6.80;4.07;;;;;;;20.45;74.93;69043.06;4915658;29;20223;-86
2022/08/10 07:42:11;;;;;;;6.15;4.28;;;;;;;;;;4899493;29;20048;-86
2022/08/10 07:44:42;;;;;;;7.43;3.85;;;;;;;20.66;74.80;69071.97;4919458;29;20474;-85
2022/08/10 07:47:23;;;;;;;5.85;3.80;;;;;;;20.84;73.28;69086.56;4923138;29;20047;-86
2022/08/10 07:49:51;;;;;;;5.20;3.90;;;;;;;;;;4950194;28;20042;-86
2022/08/10 07:52:17;;;;;;;7.05;3.80;;;;;;;21.06;72.64;69111.72;4969139;28;20124;-86
2022/08/10 07:54:50;;;;;;;6.97;3.60;;;;;;;21.21;71.78;69128.31;5003310;28;20414;-83
2022/08/10 07:57:28;;;;;;;6.10;3.58;;;;;;;21.36;71.45;69144.91;4982472;28;20171;-86
2022/08/10 08:00:11;;;;;;;5.28;3.30;;;;;;;;;;4953213;28;20054;-84
2022/08/10 08:03:00;;;;;;;6.97;2.97;;;;;;;;;;4940307;28;20057;-85
2022/08/10 08:05:36;;;;;;;4.50;3.05;;;;;;;21.86;67.75;69201.00;4971778;28;20547;-85
2022/08/10 08:08:07;;;;;;;4.85;3.13;;;;;;;21.92;67.57;69207.28;4940161;28;20519;-84
2022/08/10 08:10:39;;;;;;;6.00;2.55;;;;;;;22.05;67.89;69220.03;4926962;28;20035;-86
2022/08/10 08:13:07;;;;;;;6.43;2.67;;;;;;;22.32;66.46;69249.81;4926566;29;20043;-86
2022/08/10 08:15:33;;;;;;;8.20;2.63;;;;;;;;;;4900766;28;20139;-85
2022/08/10 08:18:04;;;;;;;3.97;2.53;;;;;;;22.53;64.34;69276.59;4918307;28;20133;-85
2022/08/10 08:20:39;;;;;;;5.15;2.30;;;;;;;22.63;63.71;69284.75;4881655;29;20053;-84
2022/08/10 08:23:13;;;;;;;3.67;2.20;;;;;;;22.66;63.69;69290.34;4874389;29;20048;-85
2022/08/10 08:25:40;;;;;;;5.65;2.10;;;;;;;22.85;63.95;69311.53;4868546;29;20052;-86
2022/08/10 08:28:18;;;;;;;4.50;2.20;;;;;;;23.06;61.79;69332.31;4852227;29;20044;-86
2022/08/10 08:31:06;;;;;;;3.88;2.30;;;;;;;23.17;60.44;69348.19;4829568;29;20553;-85
2022/08/10 08:33:33;;;;;;;3.83;2.20;;;;;;;23.28;60.46;69354.81;4836984;29;20506;-85
2022/08/10 08:36:05;;;;;;;3.90;2.25;;;;;;;23.55;59.42;69390.03;4840857;29;20453;-85
2022/08/10 08:38:38;;;;;;;5.20;1.85;;;;;;;23.61;58.40;69394.19;4858844;29;20044;-84
2022/08/10 08:41:22;;;;;;;3.85;1.90;;;;;;;;;;4863450;29;20123;-85
2022/08/10 08:44:08;;;;;;;4.50;2.30;;;;;;;23.80;57.96;69418.13;4898806;29;20295;-85
2022/08/10 08:46:55;;;;;;;4.07;2.17;;;;;;;;;;4904223;28;20638;-86
2022/08/10 08:49:50;;;;;;;5.83;2.20;;;;;;;24.03;56.38;69444.50;4561790;28;5618755;-86
2022/08/10 08:53:20;;;;;;;4.68;2.10;;;;;;;24.13;55.82;69454.81;4814337;29;1733208;-86
2022/08/10 08:56:23;;;;;;;3.33;1.92;;;;;;;24.32;55.42;69477.16;4694782;29;4145326;-86
2022/08/10 08:59:10;;;;;;;5.72;1.83;;;;;;;;;;4839013;29;471993;-86
2022/08/10 09:02:27;;;;;;;3.42;2.10;;;;;;;24.46;54.99;69492.69;4846032;29;20098;-85
2022/08/10 09:09:14;;;;;;;4.20;1.80;;;;;;;24.86;53.72;69536.81;4554971;29;4385823;-85
2022/08/10 09:11:44;;;;;;;3.58;2.05;;;;;;;;;;4806047;29;50217;-86
2022/08/10 09:14:32;;;;;;;4.60;2.10;;;;;;;25.09;52.94;69557.19;4849076;29;20491;-86
2022/08/10 09:17:28;;;;;;;4.00;1.77;;;;;;;25.34;52.66;69588.59;4886274;29;20086;-86
2022/08/10 09:20:33;;;;;;;4.30;2.00;;;;;;;25.40;50.62;69598.22;4903464;29;20044;-87
2022/08/10 09:23:23;;;;;;;2.67;1.83;;;;;;;25.61;50.56;69615.72;4887777;29;20067;-85
2022/08/10 09:25:58;;;;;;;3.80;1.98;;;;;;;25.68;49.38;69629.22;4908917;28;20044;-86
2022/08/10 09:28:26;;;;;;;3.50;1.90;;;;;;;25.47;47.34;69605.13;4905393;28;20556;-85
2022/08/10 09:31:01;;;;;;;2.87;1.70;;;;;;;25.54;48.63;69608.25;4988716;28;20077;-85
2022/08/10 09:33:45;;;;;;;2.92;1.80;;;;;;;;;;5009959;28;20069;-85
2022/08/10 09:36:27;;;;;;;4.18;2.00;;;;;;;25.80;46.23;69642.41;4997301;28;20045;-85
2022/08/10 09:39:21;;;;;;;5.63;2.05;;;;;;;25.86;47.95;69649.88;5023424;28;20060;-85
2022/08/10 09:42:05;;;;;;;4.35;1.90;;;;;;;26.05;46.19;69670.56;5006463;28;20087;-86
2022/08/10 09:44:58;;;;;;;4.00;1.63;;;;;;;26.28;44.85;69693.66;5022958;28;20140;-84
2022/08/10 09:47:55;;;;;;;3.40;1.70;;;;;;;26.24;44.51;69692.38;5023073;28;20037;-85
2022/08/10 09:50:48;;;;;;;3.72;1.80;;;;;;;26.30;43.91;69693.81;5001741;28;20048;-85
2022/08/10 09:53:23;;;;;;;4.43;2.00;;;;;;;26.40;44.42;69707.44;4965987;28;20050;-84
2022/08/10 09:56:16;;;;;;;4.50;1.70;;;;;;;26.44;44.33;69714.19;4946543;28;20061;-84
2022/08/10 09:59:18;;;;;;;2.80;1.70;;;;;;;26.49;42.08;69717.19;4984112;28;20518;-85
2022/08/10 10:01:52;;;;;;;5.50;1.52;;;;;;;26.62;43.09;69731.56;4947339;28;20738;-85
2022/08/10 10:04:36;;;;;;;3.67;1.80;;;;;;;26.83;41.85;69755.69;4976779;28;20085;-85
2022/08/10 10:07:05;;;;;;;4.22;1.52;;;;;;;26.78;41.72;69747.78;4962048;28;20054;-85
2022/08/10 10:09:30;;;;;;;;;;;;;;;26.92;42.07;69774.22;4982986;28;20046;-85
2022/08/10 10:12:20;;;;;;;2.92;1.70;;;;;;;27.05;41.11;69777.09;4958947;28;19952;-86
2022/08/10 10:15:42;;;;;;;4.25;1.67;;;;;;;27.06;41.38;69783.69;4965006;28;20073;-86
2022/08/10 10:18:06;;;;;;;2.97;1.45;;;;;;;26.96;40.67;69772.78;4957874;28;20114;-85
2022/08/10 10:20:46;;;;;;;2.33;1.67;;;;;;;27.05;40.98;69780.38;4961769;28;20062;-85
2022/08/10 10:23:49;;;;;;;4.45;1.58;;;;;;;27.23;40.44;69803.81;4962423;28;20055;-85
2022/08/10 10:26:25;;;;;;;4.22;1.50;;;;;;;27.24;41.83;69804.38;4962165;28;20060;-85
2022/08/10 10:29:01;;;;;;;3.90;1.70;;;;;;;27.13;39.18;69789.00;5023883;28;20044;-86
2022/08/10 10:31:29;;;;;;;4.93;1.50;;;;;;;27.23;39.51;69797.78;5003827;28;20074;-85
2022/08/10 10:34:17;;;;;;;2.45;1.27;;;;;;;27.42;40.07;69824.50;5011035;28;20132;-86
2022/08/10 10:36:44;;;;;;;3.63;1.38;;;;;;;27.47;38.73;69829.66;5004582;28;20037;-85
2022/08/10 10:39:15;;;;;;;4.82;1.63;;;;;;;27.40;39.27;69817.31;5023976;28;20045;-85
2022/08/10 10:41:55;;;;;;;3.13;1.42;;;;;;;27.56;38.23;69837.84;5002191;28;20033;-86
2022/08/10 10:45:15;;;;;;;3.10;1.35;;;;;;;27.58;38.83;69842.31;5020760;28;20053;-85
2022/08/10 10:49:02;;;;;;;3.92;1.50;;;;;;;27.61;39.46;69843.59;4938742;28;20038;-87
2022/08/10 10:51:36;;;;;;;3.90;1.60;;;;;;;27.61;38.44;69846.31;4865809;29;20543;-86
2022/08/10 10:55:06;;;;;;;;;;;;;;;;;;;;;
2022/08/10 10:58:13;;;;;;;2.72;1.45;;;;;;;27.83;37.76;69868.31;4881812;29;20044;-87
2022/08/10 11:00:48;;;;;;;3.92;1.42;;;;;;;27.90;38.13;69879.09;4866470;29;20091;-86
2022/08/10 11:03:58;;;;;;;3.55;1.00;;;;;;;27.91;37.64;69876.94;4865617;29;20052;-88
2022/08/10 11:07:02;;;;;;;3.38;1.40;;;;;;;28.07;35.67;69892.59;4850719;29;20488;-87
2022/08/10 11:09:47;;;;;;;3.58;1.42;;;;;;;28.17;35.62;69908.41;4836798;29;20113;-88
2022/08/10 11:15:52;;;;;;;3.45;1.60;;;;;;;28.22;36.46;69908.69;4837126;29;20600;-88
2022/08/10 11:18:24;;;;;;;3.97;1.40;;;;;;;28.18;38.40;69910.16;4823011;29;20869;-88
2022/08/10 11:21:18;;;;;;;3.42;1.75;;;;;;;27.99;36.96;69880.66;4841156;29;20069;-89
2022/08/10 11:24:31;;;;;;;2.78;1.35;;;;;;;28.15;36.46;69911.59;4846556;29;20379;-88
2022/08/10 11:27:37;;;;;;;4.55;1.33;;;;;;;28.22;35.79;69911.41;4825858;29;20341;-88
2022/08/10 11:30:05;;;;;;;2.30;1.38;;;;;;;28.22;35.96;69908.69;4847148;29;20143;-88
2022/08/10 11:33:06;;;;;;;3.35;1.70;;;;;;;28.07;37.24;69895.31;4819597;29;20042;-87
2022/08/10 11:36:02;;;;;;;2.75;1.15;;;;;;;28.26;36.73;69919.34;4618227;29;5677539;-89
2022/08/10 11:39:12;;;;;;;2.40;1.15;;;;;;;28.36;36.71;69930.25;4636090;29;5613861;-89
2022/08/10 11:41:54;;;;;;;3.38;1.40;;;;;;;28.28;35.90;69921.66;4785716;29;40147;-88
2022/08/10 11:44:33;;;;;;;5.57;1.42;;;;;;;28.51;36.52;69942.06;4837153;29;20106;-88
2022/08/10 11:47:20;;;;;;;4.53;1.60;;;;;;;28.53;34.75;69944.34;4805959;29;20077;-89
2022/08/10 11:50:00;;;;;;;3.05;1.50;;;;;;;28.39;35.15;69928.22;4787334;29;20047;-88
2022/08/10 11:52:58;;;;;;;4.72;1.40;;;;;;;28.61;35.67;69952.97;4796505;29;20058;-88
2022/08/10 11:55:33;;;;;;;4.28;1.48;;;;;;;28.66;35.20;69961.47;4823828;29;20059;-87
2022/08/10 12:01:02;;;;;;;4.15;1.40;;;;;;;28.88;34.81;69982.88;4921970;28;20231;-87
2022/08/10 12:03:35;;;;;;;4.47;1.52;;;;;;;28.95;34.70;69994.25;4946692;28;20394;-87
2022/08/10 12:06:11;;;;;;;3.30;1.77;;;;;;;28.97;35.06;69988.31;4945872;28;20050;-87
2022/08/10 12:08:44;;;;;;;5.93;1.83;;;;;;;29.33;35.32;70031.34;4930235;28;20122;-86
2022/08/10 12:11:24;;;;;;;4.90;1.50;;;;;;;29.37;34.74;70038.09;4929711;28;20039;-87
2022/08/10 12:14:34;;;;;;;3.67;1.48;;;;;;;29.36;35.06;70042.44;4920111;28;20053;-87
2022/08/10 12:17:34;;;;;;;2.13;1.35;;;;;;;29.33;34.39;70030.75;4896971;28;20369;-89
2022/08/10 12:20:21;;;;;;;3.38;1.58;;;;;;;29.29;34.23;70032.22;4903302;29;20051;-89
2022/08/10 12:23:32;;;;;;;3.17;1.40;;;;;;;29.65;35.20;70067.03;4889604;29;20089;-87
2022/08/10 12:26:08;;;;;;;3.80;1.30;;;;;;;29.78;33.67;70087.47;4851646;29;20052;-88
2022/08/10 12:29:00;;;;;;;3.55;1.38;;;;;;;29.90;33.00;70097.97;4860826;29;20044;-86
2022/08/10 12:31:32;;;;;;;3.45;1.65;;;;;;;30.04;33.17;70114.06;4887624;29;20104;-87
2022/08/10 12:34:18;;;;;;;3.40;1.58;;;;;;;30.11;33.84;70121.53;4898785;29;20432;-87
2022/08/10 12:36:52;;;;;;;3.55;1.50;;;;;;;30.12;32.32;70125.44;4898894;29;20119;-87
2022/08/10 12:39:29;;;;;;;5.47;1.40;;;;;;;29.64;32.14;70071.38;4884692;29;20495;-87
2022/08/10 12:42:05;;;;;;;4.50;1.48;;;;;;;29.50;34.37;70052.50;4898200;29;20591;-87
2022/08/10 12:44:38;;;;;;;3.00;1.45;;;;;;;29.98;33.66;70106.56;4902515;29;20055;-88
2022/08/10 12:47:19;;;;;;;2.80;1.17;;;;;;;30.30;34.19;70146.19;4849825;29;20049;-86
2022/08/10 12:49:59;;;;;;;2.58;1.30;;;;;;;30.53;32.68;70174.84;4849170;29;20120;-87
2022/08/10 12:52:36;;;;;;;2.55;1.25;;;;;;;30.75;31.85;70193.50;4885781;29;20204;-88
2022/08/10 12:55:10;;;;;;;6.30;1.40;;;;;;;30.53;32.24;70169.34;4933592;28;20047;-86